createdAt,value
2022-09-16T04:01:06.192Z,4.40
2022-09-16T04:03:38.238Z,3.50
2022-09-16T04:06:07.528Z,4.40
2022-09-16T04:08:37.885Z,2.50
2022-09-16T04:11:07.886Z,3.00
2022-09-16T04:13:36.774Z,4.60
2022-09-16T04:16:06.962Z,3.30
2022-09-16T04:18:36.767Z,3.90
2022-09-16T04:21:05.658Z,2.90
2022-09-16T04:23:34.677Z,2.80
2022-09-16T04:26:05.020Z,4.40
2022-09-16T04:28:34.970Z,7.20
2022-09-16T04:31:06.051Z,3.60
2022-09-16T04:33:36.094Z,4.10
2022-09-16T04:36:11.173Z,4.10
2022-09-16T04:38:42.805Z,3.80
2022-09-16T04:41:20.791Z,3.30
2022-09-16T04:43:59.094Z,4.10
2022-09-16T04:46:30.714Z,3.10
2022-09-16T04:49:00.927Z,4.50
2022-09-16T04:51:30.437Z,6.10
2022-09-16T04:54:01.933Z,2.50
2022-09-16T04:56:32.859Z,3.70
2022-09-16T04:59:05.072Z,6.00
2022-09-16T05:01:38.043Z,4.80
2022-09-16T05:04:08.831Z,2.40
2022-09-16T05:06:41.079Z,3.80
2022-09-16T05:09:13.540Z,4.00
2022-09-16T05:11:42.635Z,2.80
2022-09-16T05:14:16.212Z,2.20
2022-09-16T05:19:15.611Z,3.30
2022-09-16T05:21:44.491Z,2.40
2022-09-16T05:24:15.394Z,4.30
2022-09-16T05:26:44.918Z,3.10
2022-09-16T05:29:17.175Z,3.80
2022-09-16T05:31:50.104Z,4.50
2022-09-16T05:34:28.785Z,1.80
2022-09-16T05:36:57.872Z,4.50
2022-09-16T05:39:26.913Z,2.40
2022-09-16T05:42:00.354Z,5.50
2022-09-16T05:44:29.833Z,2.20
2022-09-16T05:46:58.681Z,2.90
2022-09-16T05:49:27.497Z,5.10
2022-09-16T05:51:57.203Z,3.80
2022-09-16T05:54:25.980Z,5.00
2022-09-16T05:56:55.501Z,6.70
2022-09-16T05:59:24.875Z,3.60
2022-09-16T06:01:54.381Z,2.80
2022-09-16T06:04:23.656Z,6.20
2022-09-16T06:06:52.741Z,2.80
2022-09-16T06:09:24.699Z,3.30
2022-09-16T06:12:01.701Z,4.60
2022-09-16T06:14:31.886Z,6.40
2022-09-16T06:17:02.468Z,3.30
2022-09-16T06:19:31.791Z,3.50
2022-09-16T06:22:01.049Z,3.30
2022-09-16T06:24:32.962Z,3.70
2022-09-16T06:27:02.774Z,6.60
2022-09-16T06:29:32.173Z,4.80
2022-09-16T06:32:01.114Z,3.20
2022-09-16T06:34:31.479Z,3.40
2022-09-16T06:37:00.629Z,3.90
2022-09-16T06:39:29.463Z,2.60
2022-09-16T06:42:00.950Z,4.80
2022-09-16T06:44:32.674Z,2.30
2022-09-16T06:47:01.986Z,4.80
2022-09-16T06:49:31.687Z,4.30
2022-09-16T06:52:00.279Z,10.70
2022-09-16T06:54:28.703Z,5.10
2022-09-16T06:56:58.314Z,3.50
2022-09-16T06:59:26.813Z,5.10
2022-09-16T07:01:56.035Z,7.10
2022-09-16T07:04:24.815Z,3.90
2022-09-16T07:07:10.587Z,6.50
2022-09-16T07:09:41.892Z,3.20
2022-09-16T07:12:10.732Z,9.50
2022-09-16T07:14:39.832Z,3.40
2022-09-16T07:17:09.162Z,39.50
2022-09-16T07:19:38.123Z,15.00
2022-09-16T07:22:07.328Z,4.50
2022-09-16T07:24:36.662Z,9.10
2022-09-16T07:27:05.910Z,5.70
2022-09-16T07:29:34.516Z,3.40
2022-09-16T07:32:04.083Z,2.50
2022-09-16T07:34:32.687Z,3.90
2022-09-16T07:37:01.445Z,4.70
2022-09-16T07:39:30.079Z,6.30
2022-09-16T07:42:03.863Z,7.00
2022-09-16T07:44:35.431Z,2.30
2022-09-16T07:47:05.278Z,3.90
2022-09-16T07:49:34.117Z,7.60
2022-09-16T07:52:03.354Z,6.30
2022-09-16T07:54:32.851Z,6.60
2022-09-16T07:57:02.264Z,4.80
2022-09-16T07:59:31.522Z,5.40
2022-09-16T08:02:01.251Z,8.90
2022-09-16T08:04:30.562Z,7.00
2022-09-16T08:06:59.169Z,6.00
2022-09-16T08:09:45.142Z,9.70
2022-09-16T08:12:18.475Z,4.60
2022-09-16T08:14:47.706Z,4.40
2022-09-16T08:17:17.248Z,2.30
2022-09-16T08:19:46.411Z,2.60
2022-09-16T08:22:15.748Z,3.70
2022-09-16T08:24:45.429Z,6.10
2022-09-16T08:27:14.804Z,5.20
2022-09-16T08:29:46.133Z,12.10
2022-09-16T08:32:15.635Z,4.20
2022-09-16T08:34:45.407Z,4.00
2022-09-16T08:37:14.627Z,4.60
2022-09-16T08:39:44.005Z,4.50
2022-09-16T08:42:48.356Z,7.20
2022-09-16T08:48:08.674Z,4.30
2022-09-16T08:50:45.705Z,4.80
2022-09-16T08:53:38.742Z,5.10
2022-09-16T08:56:21.122Z,3.80
2022-09-16T08:58:57.199Z,4.00
2022-09-16T09:01:32.225Z,3.70
2022-09-16T09:04:02.959Z,5.50
2022-09-16T09:07:07.048Z,4.00
2022-09-16T09:09:42.874Z,7.20
2022-09-16T09:12:41.610Z,5.90
2022-09-16T09:15:32.173Z,5.60
2022-09-16T09:18:34.066Z,4.80
2022-09-16T09:21:03.507Z,8.20
2022-09-16T09:23:48.206Z,14.80
2022-09-16T09:26:22.917Z,17.00
2022-09-16T09:29:05.676Z,3.40
2022-09-16T09:31:57.450Z,4.00
2022-09-16T09:34:42.033Z,3.90
2022-09-16T09:37:23.122Z,2.60
2022-09-16T09:40:01.673Z,5.10
2022-09-16T09:42:51.062Z,3.90
2022-09-16T09:45:37.517Z,8.40
2022-09-16T09:48:21.166Z,9.20
2022-09-16T09:50:53.131Z,2.90
2022-09-16T09:53:34.740Z,4.50
2022-09-16T09:56:35.819Z,4.00
2022-09-16T09:59:20.854Z,2.90
2022-09-16T10:01:58.891Z,5.60
2022-09-16T10:04:37.249Z,3.40
2022-09-16T10:07:07.884Z,4.70
2022-09-16T10:09:46.274Z,3.10
2022-09-16T10:12:15.673Z,3.60
2022-09-16T10:14:47.190Z,7.30
2022-09-16T10:17:18.517Z,4.00
2022-09-16T10:20:11.326Z,6.00
2022-09-16T10:22:41.027Z,4.40
2022-09-16T10:25:25.470Z,10.00
2022-09-16T10:27:58.848Z,4.70
2022-09-16T10:30:43.139Z,2.80
2022-09-16T10:33:25.658Z,6.20
2022-09-16T10:36:01.307Z,3.20
2022-09-16T10:38:54.121Z,5.10
2022-09-16T10:41:47.048Z,5.20
2022-09-16T10:44:38.692Z,6.60
2022-09-16T10:47:21.212Z,4.30
2022-09-16T10:49:54.771Z,3.60
2022-09-16T10:52:26.892Z,4.80
2022-09-16T10:54:57.167Z,3.60
2022-09-16T10:57:26.368Z,4.10
2022-09-16T11:00:10.488Z,4.10
2022-09-16T11:02:59.191Z,7.10
2022-09-16T11:05:46.112Z,5.60
2022-09-16T11:08:59.467Z,7.10
2022-09-16T11:11:43.776Z,4.70
2022-09-16T11:14:18.457Z,5.10
2022-09-16T11:17:37.215Z,3.50
2022-09-16T11:20:28.541Z,7.40
2022-09-16T11:23:08.926Z,25.10
2022-09-16T11:25:43.819Z,15.10
2022-09-16T11:28:38.366Z,12.50
2022-09-16T11:31:10.136Z,12.90
2022-09-16T11:34:03.974Z,4.00
2022-09-16T11:36:47.348Z,6.50
2022-09-16T11:39:45.291Z,5.10
2022-09-16T11:42:37.712Z,6.80
2022-09-16T11:45:38.611Z,3.60
2022-09-16T11:48:20.774Z,3.40
2022-09-16T11:50:56.184Z,2.80
2022-09-16T11:53:42.302Z,4.90
2022-09-16T11:56:19.859Z,6.80
2022-09-16T11:58:58.129Z,4.20
2022-09-16T12:01:35.885Z,2.40
2022-09-16T12:04:17.200Z,6.50
2022-09-16T12:06:49.373Z,9.10
2022-09-16T12:09:25.638Z,6.70
2022-09-16T12:12:05.123Z,3.80
2022-09-16T12:14:42.951Z,2.80
2022-09-16T12:17:29.475Z,1.10
2022-09-16T12:20:05.981Z,2.20
2022-09-16T12:22:35.285Z,10.40
2022-09-16T12:25:09.858Z,5.70
2022-09-16T12:27:49.750Z,4.60
2022-09-16T12:30:31.183Z,3.40
2022-09-16T12:33:22.426Z,4.90
2022-09-16T12:36:00.683Z,2.10
2022-09-16T12:38:31.699Z,2.80
2022-09-16T12:41:33.909Z,1.90
2022-09-16T12:44:35.713Z,3.40
2022-09-16T12:47:23.633Z,3.40
2022-09-16T12:50:29.961Z,4.40
2022-09-16T12:53:47.339Z,8.10
2022-09-16T12:56:51.737Z,3.30
2022-09-16T12:59:31.286Z,8.80
2022-09-16T13:02:18.789Z,2.70
2022-09-16T13:04:57.937Z,1.70
2022-09-16T13:07:31.021Z,3.20
2022-09-16T13:10:55.042Z,3.90
2022-09-16T13:13:50.681Z,2.00
2022-09-16T13:16:57.806Z,3.10
2022-09-16T13:19:38.841Z,3.50
2022-09-16T13:22:28.885Z,6.20
2022-09-16T13:25:29.965Z,4.90
2022-09-16T13:28:05.427Z,6.70
2022-09-16T13:30:39.494Z,6.20
2022-09-16T13:33:10.808Z,4.00
2022-09-16T13:35:42.653Z,5.50
2022-09-16T13:38:17.804Z,7.50
2022-09-16T13:41:02.436Z,4.60
2022-09-16T13:43:34.513Z,6.20
2022-09-16T13:46:10.446Z,3.00
2022-09-16T13:49:06.064Z,4.30
2022-09-16T13:51:46.048Z,8.60
2022-09-16T13:54:27.442Z,4.70
2022-09-16T13:57:12.101Z,5.90
2022-09-16T13:59:56.380Z,4.00
2022-09-16T14:02:51.573Z,4.00
2022-09-16T14:05:45.383Z,2.40
2022-09-16T14:08:37.918Z,1.90
2022-09-16T14:11:22.923Z,3.30
2022-09-16T14:14:05.207Z,4.70
2022-09-16T14:16:41.069Z,5.30
2022-09-16T14:19:22.545Z,6.40
2022-09-16T14:22:18.811Z,5.20
2022-09-16T14:24:52.940Z,1.80
2022-09-16T14:27:43.186Z,3.20
2022-09-16T14:30:17.955Z,6.20
2022-09-16T14:32:49.153Z,6.50
2022-09-16T14:35:26.876Z,6.00
2022-09-16T14:38:01.054Z,8.70
2022-09-16T14:40:30.476Z,8.80
2022-09-16T14:43:08.672Z,11.30
2022-09-16T14:45:38.561Z,6.10
2022-09-16T14:48:10.937Z,17.70
2022-09-16T14:50:45.031Z,8.90
2022-09-16T14:53:35.392Z,9.60
2022-09-16T14:56:06.709Z,11.50
2022-09-16T14:58:37.474Z,12.70
2022-09-16T15:01:17.586Z,7.20
2022-09-16T15:04:01.470Z,5.20
2022-09-16T15:06:35.743Z,7.40
2022-09-16T15:09:15.417Z,11.90
2022-09-16T15:11:54.042Z,13.50
2022-09-16T15:14:26.544Z,16.40
2022-09-16T15:17:00.854Z,11.00
2022-09-16T15:19:37.063Z,8.20
2022-09-16T15:22:14.142Z,6.40
2022-09-16T15:24:48.716Z,8.20
2022-09-16T15:27:29.263Z,4.50
2022-09-16T15:30:01.418Z,5.30
2022-09-16T15:32:32.165Z,2.80
2022-09-16T15:35:12.805Z,5.70
2022-09-16T15:37:41.687Z,8.10
2022-09-16T15:40:33.581Z,9.10
2022-09-16T15:43:22.794Z,8.70
2022-09-16T15:46:04.196Z,11.00
2022-09-16T15:48:37.068Z,11.60
2022-09-16T15:51:28.399Z,15.40
2022-09-16T15:54:31.945Z,12.40
2022-09-16T15:57:06.878Z,6.70
2022-09-16T15:59:48.903Z,10.00
2022-09-16T16:02:33.062Z,12.40
2022-09-16T16:05:18.251Z,18.20
2022-09-16T16:07:52.812Z,10.00
2022-09-16T16:10:36.038Z,12.20
2022-09-16T16:13:05.027Z,9.80
2022-09-16T16:15:36.851Z,8.60
2022-09-16T16:18:11.678Z,8.10
2022-09-16T16:20:41.874Z,8.80
2022-09-16T16:23:13.470Z,9.30
2022-09-16T16:25:42.528Z,7.90
2022-09-16T16:28:11.755Z,10.50
2022-09-16T16:30:41.629Z,11.10
2022-09-16T16:33:10.651Z,11.60
2022-09-16T16:35:39.137Z,15.40
2022-09-16T16:38:08.300Z,18.10
2022-09-16T16:40:37.873Z,20.40
2022-09-16T16:43:06.664Z,20.90
2022-09-16T16:45:35.139Z,15.40
2022-09-16T16:48:04.243Z,13.10
2022-09-16T16:51:04.057Z,14.70
2022-09-16T16:53:33.300Z,17.70
2022-09-16T16:56:06.289Z,14.50
2022-09-16T16:58:37.636Z,15.60
2022-09-16T17:01:10.566Z,14.20
2022-09-16T17:03:40.748Z,11.00
2022-09-16T17:06:10.226Z,15.60
2022-09-16T17:08:38.793Z,10.70
2022-09-16T17:11:08.016Z,26.70
2022-09-16T17:13:38.245Z,32.20
2022-09-16T17:16:08.583Z,13.40
2022-09-16T17:18:39.651Z,38.30
2022-09-16T17:21:14.051Z,21.00
2022-09-16T17:23:45.669Z,22.70
2022-09-16T17:26:16.067Z,16.90
2022-09-16T17:28:47.484Z,10.60
2022-09-16T17:31:18.115Z,11.80
2022-09-16T17:33:49.065Z,26.20
2022-09-16T17:36:21.321Z,27.90
2022-09-16T17:39:15.705Z,38.00
2022-09-16T17:41:48.191Z,25.40
2022-09-16T17:44:19.708Z,15.80
2022-09-16T17:46:50.388Z,19.50
2022-09-16T17:49:22.402Z,12.40
2022-09-16T17:51:53.992Z,17.80
2022-09-16T17:54:23.649Z,13.70
2022-09-16T17:56:53.500Z,12.30
2022-09-16T17:59:23.398Z,10.10
2022-09-16T18:01:54.716Z,15.30
2022-09-16T18:04:23.215Z,19.90
2022-09-16T18:06:53.114Z,24.70
2022-09-16T18:09:22.363Z,21.00
2022-09-16T18:11:50.935Z,15.30
2022-09-16T18:14:23.283Z,16.20
2022-09-16T18:16:52.675Z,16.60
2022-09-16T18:19:21.271Z,16.30
2022-09-16T18:21:50.820Z,29.00
2022-09-16T18:24:20.592Z,40.20
2022-09-16T18:26:50.048Z,36.20
2022-09-16T18:29:19.723Z,66.30
2022-09-16T18:31:50.288Z,51.60
2022-09-16T18:34:19.501Z,48.10
2022-09-16T18:36:48.099Z,42.60
2022-09-16T18:39:18.768Z,35.10
2022-09-16T18:41:47.947Z,30.50
2022-09-16T18:44:24.063Z,29.70
2022-09-16T18:46:54.013Z,27.20
2022-09-16T18:49:24.467Z,37.10
2022-09-16T18:51:54.168Z,50.90
2022-09-16T18:54:28.319Z,46.40
2022-09-16T18:56:59.482Z,63.20
2022-09-16T18:59:31.477Z,50.40
2022-09-16T19:02:04.309Z,76.10
2022-09-16T19:04:38.068Z,61.70
2022-09-16T19:07:08.874Z,65.10
2022-09-16T19:09:42.132Z,64.20
2022-09-16T19:12:13.721Z,56.70
2022-09-16T19:14:42.875Z,40.50
2022-09-16T19:17:11.736Z,27.70
2022-09-16T19:19:41.238Z,22.00
2022-09-16T19:22:10.546Z,33.50
2022-09-16T19:24:39.502Z,25.10
2022-09-16T19:27:08.540Z,26.40
2022-09-16T19:29:37.759Z,22.40
2022-09-16T19:32:07.123Z,21.20
2022-09-16T19:34:36.567Z,25.50
2022-09-16T19:37:05.904Z,23.80
2022-09-16T19:39:35.591Z,20.90
2022-09-16T19:42:05.993Z,17.90
2022-09-16T19:44:35.473Z,14.10
2022-09-16T19:47:04.895Z,14.60
2022-09-16T19:49:35.042Z,11.60
2022-09-16T19:52:04.350Z,14.40
2022-09-16T19:54:33.165Z,11.70
2022-09-16T19:57:03.209Z,14.00
2022-09-16T19:59:32.600Z,13.10
2022-09-16T20:02:01.547Z,11.50
2022-09-16T20:04:30.438Z,11.60
2022-09-16T20:06:59.235Z,9.50
2022-09-16T20:09:30.319Z,10.90
2022-09-16T20:11:59.657Z,9.10
2022-09-16T20:14:34.288Z,12.90
2022-09-16T20:17:04.186Z,19.60
2022-09-16T20:19:34.090Z,19.80
2022-09-16T20:22:03.534Z,26.50
2022-09-16T20:24:32.403Z,24.50
2022-09-16T20:27:01.822Z,28.50
2022-09-16T20:29:32.279Z,25.40
2022-09-16T20:32:01.417Z,19.10
2022-09-16T20:34:32.010Z,17.50
2022-09-16T20:37:00.788Z,14.30
2022-09-16T20:39:29.925Z,15.70
2022-09-16T20:42:00.488Z,23.10
2022-09-16T20:44:28.959Z,15.40
2022-09-16T20:46:58.042Z,13.00
2022-09-16T20:49:30.462Z,10.60
2022-09-16T20:52:00.762Z,9.90
2022-09-16T20:54:30.203Z,10.20
2022-09-16T20:56:59.997Z,9.90
2022-09-16T20:59:29.750Z,10.40
2022-09-16T21:02:04.907Z,12.10
2022-09-16T21:04:34.169Z,6.80
2022-09-16T21:07:04.106Z,6.50
2022-09-16T21:09:33.132Z,10.40
2022-09-16T21:12:02.691Z,11.00
2022-09-16T21:14:32.590Z,9.90
2022-09-16T21:17:01.683Z,9.20
2022-09-16T21:19:32.025Z,6.60
2022-09-16T21:22:01.319Z,8.40
2022-09-16T21:24:30.642Z,7.90
2022-09-16T21:26:59.703Z,7.20
2022-09-16T21:29:29.384Z,7.20
2022-09-16T21:31:58.695Z,4.70
2022-09-16T21:34:27.487Z,6.80
2022-09-16T21:36:59.554Z,7.70
2022-09-16T21:39:29.334Z,7.50
2022-09-16T21:41:59.350Z,5.80
2022-09-16T21:44:28.792Z,7.80
2022-09-16T21:46:57.524Z,8.40
2022-09-16T21:49:29.476Z,5.70
2022-09-16T21:51:59.505Z,7.20
2022-09-16T21:54:29.788Z,7.00
2022-09-16T21:56:59.781Z,5.30
2022-09-16T21:59:28.707Z,8.90
2022-09-16T22:02:02.879Z,7.00
2022-09-16T22:04:32.739Z,11.20
2022-09-16T22:07:01.753Z,13.80
2022-09-16T22:09:30.775Z,8.80
2022-09-16T22:12:00.366Z,7.50
2022-09-16T22:14:30.120Z,9.40
2022-09-16T22:16:59.879Z,11.10
2022-09-16T22:19:28.618Z,8.90
2022-09-16T22:21:57.822Z,12.70
2022-09-16T22:24:27.231Z,9.30
2022-09-16T22:26:56.288Z,7.30
2022-09-16T22:29:25.068Z,6.20
2022-09-16T22:31:54.121Z,5.50
2022-09-16T22:34:23.691Z,6.10
2022-09-16T22:36:53.556Z,8.60
2022-09-16T22:39:23.293Z,6.50
2022-09-16T22:41:52.476Z,6.70
2022-09-16T22:44:21.710Z,6.60
2022-09-16T22:46:52.027Z,5.00
2022-09-16T22:49:21.317Z,6.20
2022-09-16T22:51:50.180Z,5.40
2022-09-16T22:54:19.178Z,4.90
2022-09-16T22:56:48.483Z,7.80
2022-09-16T22:59:19.523Z,6.00
2022-09-16T23:01:49.086Z,4.40
2022-09-16T23:04:19.434Z,4.10
2022-09-16T23:06:48.454Z,6.40
2022-09-16T23:09:23.480Z,5.50
2022-09-16T23:11:53.376Z,10.60
2022-09-16T23:14:25.232Z,11.70
2022-09-16T23:16:57.884Z,8.40
2022-09-16T23:19:27.331Z,6.70
2022-09-16T23:21:56.568Z,4.30
2022-09-16T23:24:25.760Z,3.50
2022-09-16T23:26:54.925Z,3.30
2022-09-16T23:29:24.152Z,8.70
2022-09-16T23:31:54.326Z,4.90
2022-09-16T23:34:24.094Z,7.60
2022-09-16T23:36:53.140Z,5.90
2022-09-16T23:39:22.300Z,4.90
2022-09-16T23:41:51.953Z,7.10
2022-09-16T23:44:22.728Z,7.30
2022-09-16T23:46:52.803Z,7.70
2022-09-16T23:49:22.032Z,7.70
2022-09-16T23:51:50.701Z,4.30
2022-09-16T23:54:20.958Z,7.80
2022-09-16T23:56:50.472Z,4.60
2022-09-16T23:59:19.971Z,5.20
